Time;durP1;ratioP1;P1;durP2;ratioP2;P2;SDS_P1;SDS_P2;PMS_P1;PMS_P2;Temp;Humidity;BMP_temperature;BMP_pressure;BME280_temperature;BME280_humidity;BME280_pressure;Samples;Min_cycle;Max_cycle;Signal;HPM_P1;HPM_P2
2022/06/05 00:00:15;;;;;;;7.30;6.60;;;;;;;16.35;59.71;101318.66;4990187;28;20233;-83
2022/06/05 00:02:57;;;;;;;7.30;6.50;;;;;;;16.34;59.93;101322.31;4985383;28;20205;-83
2022/06/05 00:05:28;;;;;;;7.13;6.43;;;;;;;16.32;59.77;101321.56;4978249;28;20239;-82
2022/06/05 00:08:05;;;;;;;7.70;6.30;;;;;;;16.31;59.72;101325.22;4989098;28;20203;-83
2022/06/05 00:10:38;;;;;;;6.70;6.03;;;;;;;16.26;60.11;101314.84;4989270;28;20729;-83
2022/06/05 00:13:11;;;;;;;6.93;6.27;;;;;;;16.26;60.03;101319.38;4988753;28;20209;-83
2022/06/05 00:15:38;;;;;;;7.30;6.60;;;;;;;16.23;60.34;101308.84;4988128;28;20316;-83
2022/06/05 00:18:05;;;;;;;6.97;6.10;;;;;;;16.20;60.49;101301.88;4981412;28;20211;-83
2022/06/05 00:20:33;;;;;;;7.80;6.33;;;;;;;16.20;60.38;101298.31;4986391;28;20229;-83
2022/06/05 00:23:00;;;;;;;7.23;6.33;;;;;;;16.19;60.71;101301.97;4994243;28;20211;-83
2022/06/05 00:25:34;;;;;;;6.27;5.73;;;;;;;16.17;60.71;101310.16;4997264;28;20224;-83
2022/06/05 00:28:06;;;;;;;7.33;6.63;;;;;;;16.13;60.71;101297.06;4992395;28;20275;-83
2022/06/05 00:30:43;;;;;;;7.50;6.80;;;;;;;16.08;60.68;101291.22;4989297;28;20202;-83
2022/06/05 00:33:13;;;;;;;8.60;6.83;;;;;;;16.02;60.66;101283.59;4988916;28;20200;-83
2022/06/05 00:35:50;;;;;;;7.73;6.37;;;;;;;15.95;60.65;101286.75;4989898;28;20225;-83
2022/06/05 00:38:25;;;;;;;7.00;6.40;;;;;;;15.87;60.85;101283.81;4988900;28;20203;-83
2022/06/05 00:41:12;;;;;;;7.47;6.70;;;;;;;15.84;61.73;101281.34;4986906;28;20229;-83
2022/06/05 00:43:39;;;;;;;7.47;6.70;;;;;;;15.80;61.89;101279.84;4978339;28;20204;-83
2022/06/05 00:46:05;;;;;;;6.90;6.20;;;;;;;15.78;62.00;101273.72;4988497;28;20220;-83
2022/06/05 00:48:32;;;;;;;7.43;6.23;;;;;;;15.77;62.43;101269.34;4981017;28;20207;-84
2022/06/05 00:51:00;;;;;;;8.20;6.93;;;;;;;15.77;62.20;101272.00;4989839;28;20204;-82
2022/06/05 00:53:27;;;;;;;8.33;6.40;;;;;;;15.73;62.31;101275.94;4989762;28;20208;-83
2022/06/05 00:55:54;;;;;;;7.40;6.67;;;;;;;15.69;62.41;101268.22;4977631;28;20237;-82
2022/06/05 00:58:22;;;;;;;7.80;7.10;;;;;;;15.61;61.54;101271.44;4946400;28;1204127;-83
2022/06/05 01:00:52;;;;;;;8.03;7.00;;;;;;;15.48;61.88;101270.63;4985998;28;20224;-83
2022/06/05 01:03:20;;;;;;;7.27;6.57;;;;;;;15.31;61.80;101269.19;4986252;28;20216;-83
2022/06/05 01:05:47;;;;;;;7.07;6.37;;;;;;;15.15;62.27;101261.41;4991583;28;20255;-84
2022/06/05 01:08:15;;;;;;;6.83;6.23;;;;;;;15.00;62.33;101257.16;4990443;28;20212;-84
2022/06/05 01:10:53;;;;;;;7.83;6.13;;;;;;;14.84;62.35;101246.66;4991241;28;20208;-83
2022/06/05 01:13:36;;;;;;;7.03;6.33;;;;;;;14.73;63.68;101253.75;4989340;28;20199;-84
2022/06/05 01:16:16;;;;;;;7.80;7.07;;;;;;;14.68;64.54;101247.88;4987535;28;20235;-83
2022/06/05 01:18:50;;;;;;;7.67;6.93;;;;;;;14.64;65.28;101249.91;4988288;28;20196;-83
2022/06/05 01:21:51;;;;;;;7.70;6.80;;;;;;;14.64;65.73;101244.56;4989204;28;20216;-83
2022/06/05 01:24:36;;;;;;;7.43;6.80;;;;;;;14.64;66.18;101247.22;4990269;28;20628;-83
2022/06/05 01:27:09;;;;;;;7.90;7.10;;;;;;;14.64;66.29;101246.38;4987744;28;20195;-83
2022/06/05 01:29:41;;;;;;;9.10;6.83;;;;;;;14.65;66.20;101240.91;4991955;28;20199;-83
2022/06/05 01:32:11;;;;;;;7.80;6.70;;;;;;;14.63;66.48;101240.16;4983732;28;20236;-82
2022/06/05 01:34:44;;;;;;;8.13;7.33;;;;;;;14.61;66.19;101243.91;4986959;28;20203;-83
2022/06/05 01:37:17;;;;;;;8.73;7.20;;;;;;;14.57;66.66;101252.16;4987259;28;20204;-83
2022/06/05 01:39:48;;;;;;;7.57;6.90;;;;;;;14.54;67.00;101244.31;4988943;28;20235;-83
2022/06/05 01:42:21;;;;;;;8.87;7.30;;;;;;;14.49;66.68;101254.53;4989662;28;20607;-83
2022/06/05 01:44:50;;;;;;;9.53;7.13;;;;;;;14.43;66.78;101251.41;4986013;28;20227;-83
2022/06/05 01:47:21;;;;;;;7.73;6.87;;;;;;;14.28;65.96;101256.00;4988628;28;20215;-83
2022/06/05 01:49:54;;;;;;;6.80;6.10;;;;;;;14.12;66.51;101258.00;4989347;28;20230;-84
2022/06/05 01:52:26;;;;;;;9.00;6.90;;;;;;;14.01;66.96;101247.16;4991506;28;20219;-83
2022/06/05 01:54:59;;;;;;;8.80;7.10;;;;;;;13.95;67.28;101242.22;4989586;28;20346;-82
2022/06/05 01:57:30;;;;;;;10.13;8.40;;;;;;;13.93;68.15;101233.44;4991724;28;20211;-83
2022/06/05 02:00:01;;;;;;;9.57;7.93;;;;;;;13.93;68.25;101236.13;4990444;28;20319;-83
2022/06/05 02:02:33;;;;;;;12.30;8.80;;;;;;;13.93;69.07;101231.63;4987086;28;20536;-83
2022/06/05 02:05:05;;;;;;;8.83;7.90;;;;;;;13.93;69.03;101230.75;4990988;28;20226;-83
2022/06/05 02:07:37;;;;;;;11.53;7.60;;;;;;;13.92;69.59;101237.09;4982726;28;20204;-83
2022/06/05 02:10:08;;;;;;;8.93;7.70;;;;;;;13.88;69.25;101223.91;4998635;28;20203;-83
2022/06/05 02:12:37;;;;;;;9.27;8.23;;;;;;;13.87;69.50;101224.00;4989003;28;20204;-83
2022/06/05 02:15:05;;;;;;;8.93;8.03;;;;;;;13.87;69.65;101226.69;4993916;28;20231;-83
2022/06/05 02:17:32;;;;;;;8.40;7.53;;;;;;;13.85;69.98;101224.09;4993452;28;20231;-83
2022/06/05 02:19:59;;;;;;;9.93;8.07;;;;;;;13.87;70.24;101215.97;4990938;28;20322;-82
2022/06/05 02:22:33;;;;;;;9.80;7.93;;;;;;;13.88;70.33;101215.88;4993171;28;20234;-83
2022/06/05 02:25:00;;;;;;;9.63;7.83;;;;;;;13.89;70.29;101219.41;4993548;28;20227;-83
2022/06/05 02:27:27;;;;;;;11.77;8.57;;;;;;;13.87;70.14;101216.81;4987598;28;20204;-82
2022/06/05 02:29:57;;;;;;;10.73;8.00;;;;;;;13.84;69.83;101209.00;4994214;28;20199;-82
2022/06/05 02:32:42;;;;;;;9.50;7.87;;;;;;;13.84;70.11;101218.84;4992618;28;20651;-83
2022/06/05 02:35:19;;;;;;;9.00;7.20;;;;;;;13.80;69.86;101218.19;4992248;28;20262;-82
2022/06/05 02:37:58;;;;;;;9.17;7.27;;;;;;;13.76;69.92;101216.69;4994607;28;20720;-82
2022/06/05 02:40:35;;;;;;;8.57;7.53;;;;;;;13.74;70.24;101215.09;4981386;28;20277;-82
2022/06/05 02:43:07;;;;;;;9.50;7.87;;;;;;;13.71;70.16;101202.75;4980541;28;20697;-82
2022/06/05 02:45:41;;;;;;;7.77;6.97;;;;;;;13.70;70.43;101208.22;4988900;28;20255;-83
2022/06/05 02:48:13;;;;;;;8.00;7.20;;;;;;;13.69;70.78;101209.19;4990793;28;20208;-82
2022/06/05 02:50:44;;;;;;;12.10;8.43;;;;;;;13.68;70.32;101199.44;4988997;28;20200;-83
2022/06/05 02:53:13;;;;;;;8.97;7.73;;;;;;;13.67;70.57;101198.56;4992213;28;20200;-83
2022/06/05 02:55:40;;;;;;;10.13;7.43;;;;;;;13.67;70.82;101201.25;4987628;28;20232;-83
2022/06/05 02:58:07;;;;;;;9.17;8.13;;;;;;;13.65;71.06;101199.63;4988257;28;20211;-82
2022/06/05 03:00:38;;;;;;;8.10;7.30;;;;;;;13.65;71.23;101191.59;4989479;28;20221;-83
2022/06/05 03:05:49;;;;;;;8.80;7.90;;;;;;;13.64;71.16;101212.16;4985915;28;20351;-82
2022/06/05 03:08:18;;;;;;;8.90;7.97;;;;;;;13.63;71.35;101218.47;4994938;28;20577;-82
2022/06/05 03:10:45;;;;;;;8.67;7.77;;;;;;;13.60;71.15;101224.06;4984339;28;20196;-82
2022/06/05 03:13:12;;;;;;;8.40;7.57;;;;;;;13.60;71.33;101210.66;4992309;28;20655;-83
2022/06/05 03:15:41;;;;;;;10.10;7.80;;;;;;;13.58;71.25;101204.56;4992471;28;20220;-83
2022/06/05 03:18:08;;;;;;;8.73;7.87;;;;;;;13.55;71.02;101212.78;4990781;28;20210;-82
2022/06/05 03:20:35;;;;;;;9.43;7.57;;;;;;;13.53;71.21;101212.03;4992356;28;20318;-83
2022/06/05 03:23:02;;;;;;;8.50;7.63;;;;;;;13.50;71.71;101207.72;4992303;28;20286;-83
2022/06/05 03:25:29;;;;;;;9.60;7.40;;;;;;;13.48;71.73;101200.75;4998596;28;20227;-83
2022/06/05 03:27:57;;;;;;;8.30;7.50;;;;;;;13.46;71.64;101191.97;4992212;28;20627;-83
2022/06/05 03:30:23;;;;;;;8.87;7.33;;;;;;;13.44;71.67;101197.44;4998936;28;20213;-83
2022/06/05 03:32:51;;;;;;;9.67;8.37;;;;;;;13.42;71.78;101188.69;4983388;28;20204;-82
2022/06/05 03:35:17;;;;;;;9.17;7.80;;;;;;;13.40;71.76;101187.91;4980196;28;20227;-83
2022/06/05 03:37:45;;;;;;;11.60;8.43;;;;;;;13.37;72.00;101185.44;4990822;28;20224;-83
2022/06/05 03:40:14;;;;;;;9.17;8.00;;;;;;;13.33;72.18;101183.91;4986044;28;20211;-83
2022/06/05 03:42:41;;;;;;;7.70;6.90;;;;;;;13.28;72.06;101186.03;4981833;28;20566;-85
2022/06/05 03:45:12;;;;;;;9.43;8.27;;;;;;;13.27;72.40;101195.00;4979274;28;20284;-84
2022/06/05 03:47:38;;;;;;;8.17;7.37;;;;;;;13.25;72.67;101193.44;4980462;28;20200;-85
2022/06/05 03:50:08;;;;;;;8.00;7.23;;;;;;;13.26;72.95;101200.47;4985839;28;20208;-85
2022/06/05 03:52:35;;;;;;;9.20;7.60;;;;;;;13.26;73.26;101192.44;4988182;28;20214;-83
2022/06/05 03:55:01;;;;;;;10.97;7.63;;;;;;;13.26;73.25;101198.66;4987381;28;20243;-83
2022/06/05 03:57:28;;;;;;;8.67;7.73;;;;;;;13.27;72.93;101183.47;4985400;28;20218;-82
2022/06/05 03:59:54;;;;;;;9.70;7.73;;;;;;;13.25;72.80;101172.88;4981492;28;20210;-83
2022/06/05 04:02:21;;;;;;;9.03;8.13;;;;;;;13.23;73.08;101177.47;4982736;28;20255;-83
2022/06/05 04:04:47;;;;;;;7.90;7.17;;;;;;;13.22;73.04;101162.38;4981408;28;20220;-84
2022/06/05 04:07:15;;;;;;;10.73;7.70;;;;;;;13.23;73.16;101153.41;4988569;28;20204;-83
2022/06/05 04:09:42;;;;;;;8.70;7.63;;;;;;;13.24;73.35;101155.13;4985025;28;20579;-83
2022/06/05 04:12:08;;;;;;;8.17;7.17;;;;;;;13.24;73.07;101152.44;4985857;28;20215;-84
2022/06/05 04:14:35;;;;;;;9.33;7.03;;;;;;;13.24;73.49;101152.44;4980941;28;20204;-84
2022/06/05 04:17:01;;;;;;;7.37;6.63;;;;;;;13.23;73.18;101145.38;4989113;28;20646;-83
2022/06/05 04:19:28;;;;;;;8.23;7.43;;;;;;;13.21;73.64;101139.28;4982925;28;20235;-83
2022/06/05 04:21:54;;;;;;;8.73;7.03;;;;;;;13.21;73.73;101136.59;4987840;28;20230;-83
2022/06/05 04:24:22;;;;;;;7.27;6.57;;;;;;;13.22;73.91;101140.13;4985746;28;20217;-83
2022/06/05 04:26:49;;;;;;;7.17;6.47;;;;;;;13.23;74.30;101133.81;4986371;28;20207;-83
2022/06/05 04:29:16;;;;;;;9.13;6.73;;;;;;;13.23;74.45;101128.47;4988762;28;20211;-83
2022/06/05 04:31:45;;;;;;;7.23;6.47;;;;;;;13.22;74.20;101138.31;4982698;28;20200;-85
2022/06/05 04:34:15;;;;;;;8.07;6.63;;;;;;;13.24;74.46;101127.50;4992516;28;20207;-85
2022/06/05 04:36:42;;;;;;;7.47;6.77;;;;;;;13.24;74.79;101125.69;4986851;28;20224;-84
2022/06/05 04:39:08;;;;;;;8.80;6.87;;;;;;;13.26;74.70;101121.06;4992560;28;20219;-83
2022/06/05 04:41:37;;;;;;;7.30;6.40;;;;;;;13.29;74.89;101130.72;4989634;28;20239;-83
2022/06/05 04:44:05;;;;;;;8.03;7.23;;;;;;;13.32;75.06;101126.03;4993193;28;20207;-83
2022/06/05 04:46:32;;;;;;;7.67;6.37;;;;;;;13.36;74.65;101118.66;4994402;28;20298;-84
2022/06/05 04:48:59;;;;;;;7.07;6.37;;;;;;;13.38;74.96;101114.06;4991810;28;20635;-83
2022/06/05 04:51:26;;;;;;;7.97;6.57;;;;;;;13.43;75.02;101119.97;4992458;28;20200;-83
2022/06/05 04:53:55;;;;;;;7.63;6.93;;;;;;;13.47;75.11;101116.97;4994005;28;20209;-85
2022/06/05 04:56:24;;;;;;;8.00;6.53;;;;;;;13.51;75.54;101104.22;4990970;28;20590;-84
2022/06/05 04:58:53;;;;;;;7.93;7.13;;;;;;;13.57;75.50;101106.50;4992131;28;20668;-83
2022/06/05 05:01:22;;;;;;;7.27;6.47;;;;;;;13.62;75.60;101111.50;4989638;28;20310;-85
2022/06/05 05:03:53;;;;;;;7.67;6.80;;;;;;;13.68;75.87;101114.63;4992594;28;20199;-84
2022/06/05 05:06:20;;;;;;;7.67;6.97;;;;;;;13.71;75.82;101109.06;4991969;28;20230;-83
2022/06/05 05:08:46;;;;;;;9.80;6.97;;;;;;;13.78;76.27;101110.38;4991204;28;20216;-84
2022/06/05 05:11:13;;;;;;;8.90;6.77;;;;;;;13.85;76.17;101110.78;4989756;28;20208;-83
2022/06/05 05:13:39;;;;;;;7.53;6.83;;;;;;;13.93;77.00;101118.31;4993849;28;20210;-86
2022/06/05 05:16:08;;;;;;;8.17;7.47;;;;;;;14.02;77.18;101107.78;4990150;28;20223;-85
2022/06/05 05:18:35;;;;;;;8.63;7.73;;;;;;;14.12;77.02;101110.69;4991182;28;20203;-86
2022/06/05 05:21:07;;;;;;;8.70;6.97;;;;;;;14.24;77.56;101117.84;4991620;28;20805;-84
2022/06/05 05:23:33;;;;;;;8.20;7.50;;;;;;;14.37;77.64;101131.22;4992320;28;20208;-83
2022/06/05 05:26:08;;;;;;;7.87;7.07;;;;;;;14.47;77.22;101125.13;4988674;28;20224;-84
2022/06/05 05:28:34;;;;;;;8.60;7.37;;;;;;;14.55;77.21;101117.38;4990628;28;20867;-84
2022/06/05 05:31:01;;;;;;;8.10;7.30;;;;;;;14.65;77.22;101132.81;4990720;28;20651;-83
2022/06/05 05:33:29;;;;;;;8.00;7.20;;;;;;;14.74;76.85;101116.03;4996613;28;20741;-83
2022/06/05 05:35:55;;;;;;;8.80;7.20;;;;;;;14.82;76.41;101114.53;4990607;28;20686;-84
2022/06/05 05:38:22;;;;;;;7.53;6.83;;;;;;;14.93;76.02;101127.97;4990751;28;20207;-84
2022/06/05 05:43:32;;;;;;;8.80;7.23;;;;;;;15.21;75.38;101123.25;4991960;28;20206;-86
2022/06/05 05:45:59;;;;;;;7.63;6.83;;;;;;;15.33;74.76;101116.97;4989395;28;20226;-84
2022/06/05 05:48:25;;;;;;;7.67;6.97;;;;;;;15.46;74.58;101123.09;4989254;28;20222;-84
2022/06/05 05:50:53;;;;;;;7.17;6.57;;;;;;;15.59;73.90;101120.34;4991431;28;20208;-85
2022/06/05 05:53:20;;;;;;;7.30;6.60;;;;;;;15.74;73.61;101111.16;4986110;28;20207;-83
2022/06/05 05:55:46;;;;;;;7.57;6.87;;;;;;;15.90;73.46;101118.84;4989870;28;20229;-83
2022/06/05 05:58:13;;;;;;;8.10;6.93;;;;;;;16.07;72.58;101120.22;4988233;28;20215;-84
2022/06/05 06:00:39;;;;;;;6.73;6.13;;;;;;;16.22;71.74;101119.00;4983859;28;20556;-84
2022/06/05 06:03:06;;;;;;;8.03;7.20;;;;;;;16.37;71.17;101120.47;4990643;28;20204;-83
2022/06/05 06:05:32;;;;;;;6.97;6.27;;;;;;;16.54;70.68;101122.66;4992128;28;20248;-84
2022/06/05 06:08:01;;;;;;;6.73;6.03;;;;;;;16.69;70.00;101125.94;4989800;28;20209;-84
2022/06/05 06:10:27;;;;;;;6.90;6.27;;;;;;;16.82;69.20;101117.75;4990881;28;20839;-83
2022/06/05 06:12:54;;;;;;;7.93;6.70;;;;;;;16.97;69.14;101119.19;4989959;28;20199;-83
2022/06/05 06:15:20;;;;;;;7.50;6.63;;;;;;;17.11;69.22;101126.09;4992335;28;20238;-85
2022/06/05 06:17:47;;;;;;;6.90;6.40;;;;;;;17.26;68.19;101119.44;4988819;28;20423;-83
2022/06/05 06:20:13;;;;;;;8.00;6.73;;;;;;;17.40;67.48;101110.19;4979838;28;20228;-85
2022/06/05 06:22:41;;;;;;;6.33;5.73;;;;;;;17.52;67.25;101101.94;4990354;28;20231;-84
2022/06/05 06:25:11;;;;;;;6.77;6.07;;;;;;;17.67;66.74;101099.81;4987071;28;20238;-86
2022/06/05 06:27:38;;;;;;;6.83;6.23;;;;;;;17.81;66.21;101095.91;4994542;28;20205;-85
2022/06/05 06:30:05;;;;;;;7.00;6.40;;;;;;;17.96;65.77;101090.03;4985311;28;20207;-84
2022/06/05 06:32:32;;;;;;;6.90;6.23;;;;;;;18.13;65.26;101082.31;4989517;28;20554;-83
2022/06/05 06:34:58;;;;;;;6.37;5.77;;;;;;;18.28;65.01;101072.88;4993996;28;20231;-84
2022/06/05 06:37:25;;;;;;;6.93;6.33;;;;;;;18.46;64.55;101070.38;4993937;28;20212;-84
2022/06/05 06:39:51;;;;;;;6.97;6.30;;;;;;;18.65;63.79;101062.34;4989747;28;20745;-86
2022/06/05 06:42:19;;;;;;;6.53;6.03;;;;;;;18.82;63.58;101066.22;4988695;28;20233;-83
2022/06/05 06:44:46;;;;;;;6.70;6.10;;;;;;;18.99;63.21;101057.44;4995012;28;20576;-84
2022/06/05 06:47:12;;;;;;;6.80;6.30;;;;;;;19.16;62.16;101053.19;4993688;28;20210;-84
2022/06/05 06:49:39;;;;;;;9.23;6.20;;;;;;;19.31;61.59;101060.72;4989512;28;20214;-84
2022/06/05 06:52:06;;;;;;;7.73;7.07;;;;;;;19.43;60.83;101054.16;4984083;28;20708;-83
2022/06/05 06:54:33;;;;;;;7.13;6.40;;;;;;;19.55;60.42;101040.50;4986133;28;20243;-83
2022/06/05 06:57:00;;;;;;;7.20;6.60;;;;;;;19.64;59.77;101039.66;4984750;28;20207;-83
2022/06/05 06:59:28;;;;;;;6.40;5.90;;;;;;;19.78;60.32;101044.56;4985691;28;20210;-84
2022/06/05 07:01:55;;;;;;;6.13;5.53;;;;;;;19.94;60.19;101047.50;4987495;28;20231;-83
2022/06/05 07:04:22;;;;;;;6.00;5.50;;;;;;;20.08;60.10;101038.06;4991812;28;20208;-83
2022/06/05 07:06:49;;;;;;;6.70;6.10;;;;;;;20.23;59.70;101033.03;4986765;28;20229;-83
2022/06/05 07:09:15;;;;;;;6.47;5.87;;;;;;;20.33;59.05;101025.69;4983394;28;20204;-82
2022/06/05 07:11:42;;;;;;;6.33;5.77;;;;;;;20.44;58.75;101026.38;4986923;28;20209;-83
2022/06/05 07:14:09;;;;;;;6.53;5.90;;;;;;;20.59;58.06;101024.03;4992065;28;20309;-84
2022/06/05 07:16:38;;;;;;;6.13;5.53;;;;;;;20.69;57.98;101024.78;4987026;28;20222;-83
2022/06/05 07:19:05;;;;;;;6.63;6.03;;;;;;;20.82;57.21;101029.81;4988052;28;20334;-84
2022/06/05 07:21:32;;;;;;;5.70;5.20;;;;;;;20.91;57.31;101033.47;4987226;28;20232;-83
2022/06/05 07:23:59;;;;;;;5.83;5.33;;;;;;;20.99;56.85;101020.00;4986041;28;20214;-83
2022/06/05 07:26:28;;;;;;;5.80;5.30;;;;;;;21.06;56.99;101016.53;4986004;28;20223;-83
2022/06/05 07:28:56;;;;;;;6.32;5.80;;;;;;;21.20;57.10;101017.84;4988582;28;20203;-84
2022/06/05 07:31:23;;;;;;;5.65;5.20;;;;;;;21.34;56.86;101013.72;4988409;28;20218;-84
2022/06/05 07:33:51;;;;;;;5.18;4.78;;;;;;;21.43;55.98;101008.22;4988886;28;20204;-85
2022/06/05 07:36:20;;;;;;;6.05;5.60;;;;;;;21.51;55.80;101011.97;4983787;28;20231;-86
2022/06/05 07:38:48;;;;;;;6.75;5.38;;;;;;;21.54;55.15;101007.09;4984686;28;20207;-84
2022/06/05 07:41:18;;;;;;;6.00;5.50;;;;;;;21.59;54.88;101006.63;4984784;28;20200;-83
2022/06/05 07:43:44;;;;;;;6.25;5.63;;;;;;;21.63;55.37;101016.13;4984284;28;20220;-83
2022/06/05 07:46:12;;;;;;;5.80;5.22;;;;;;;21.72;55.55;101009.75;4985604;28;20223;-82
2022/06/05 07:48:39;;;;;;;6.65;5.63;;;;;;;21.85;55.65;101004.75;4983123;28;20265;-82
2022/06/05 07:56:40;;;;;;;5.70;5.30;;;;;;;22.04;54.75;100998.22;4981269;28;20247;-84
2022/06/05 07:59:08;;;;;;;5.78;5.30;;;;;;;22.11;55.12;101002.84;4980397;28;20581;-84
2022/06/05 08:01:35;;;;;;;6.78;6.03;;;;;;;22.19;54.69;101003.91;4985449;28;20273;-85
2022/06/05 08:04:02;;;;;;;6.32;5.80;;;;;;;22.25;54.40;100997.81;4984031;28;20564;-85
2022/06/05 08:06:30;;;;;;;6.75;5.88;;;;;;;22.30;53.85;100996.31;4982847;28;20324;-84
2022/06/05 08:08:56;;;;;;;6.15;5.65;;;;;;;22.37;53.68;100983.81;4985470;28;20206;-85
2022/06/05 08:11:23;;;;;;;7.00;6.15;;;;;;;22.44;53.27;100978.53;4982070;28;20655;-83
2022/06/05 08:13:49;;;;;;;7.25;6.60;;;;;;;22.52;53.35;100982.13;4984325;28;20204;-84
2022/06/05 08:16:16;;;;;;;7.00;6.28;;;;;;;22.60;53.24;100973.16;4982934;28;20734;-84
2022/06/05 08:18:42;;;;;;;6.68;6.18;;;;;;;22.65;53.40;100951.78;4979849;28;20204;-84
2022/06/05 08:21:09;;;;;;;7.10;6.40;;;;;;;22.70;52.90;100951.28;4985854;28;20220;-83
2022/06/05 08:23:37;;;;;;;6.60;6.00;;;;;;;22.72;52.80;100944.66;4985328;28;20230;-83
2022/06/05 08:26:04;;;;;;;6.05;5.60;;;;;;;22.76;52.62;100935.16;4986856;28;20715;-83
2022/06/05 08:28:30;;;;;;;6.68;5.80;;;;;;;22.82;53.13;100931.78;4988219;28;20218;-84
2022/06/05 08:30:57;;;;;;;8.75;5.95;;;;;;;22.92;53.16;100922.66;4987781;28;20230;-84
2022/06/05 08:33:24;;;;;;;7.40;6.70;;;;;;;22.98;52.93;100921.94;4984011;28;20205;-83
2022/06/05 08:35:50;;;;;;;7.68;6.00;;;;;;;23.03;52.49;100925.00;4985880;28;20235;-84
2022/06/05 08:41:30;;;;;;;6.57;5.40;;;;;;;23.12;52.63;100932.97;4983373;28;20202;-83
2022/06/05 08:44:04;;;;;;;6.88;6.22;;;;;;;23.16;52.10;100937.03;4984287;28;20579;-83
2022/06/05 08:46:37;;;;;;;6.40;5.75;;;;;;;23.19;52.18;100933.13;4981914;28;20245;-84
2022/06/05 08:49:10;;;;;;;6.85;6.15;;;;;;;23.25;52.24;100931.59;4988673;28;20196;-84
2022/06/05 08:51:52;;;;;;;6.53;5.93;;;;;;;23.29;51.54;100927.53;4984015;28;20267;-84
2022/06/05 08:54:22;;;;;;;7.53;6.43;;;;;;;23.33;51.18;100924.28;4984427;28;20227;-83
2022/06/05 08:56:54;;;;;;;6.10;5.60;;;;;;;23.35;51.04;100932.25;4984443;28;21667;-83
2022/06/05 08:59:27;;;;;;;8.93;6.38;;;;;;;23.37;50.90;100938.38;4981562;28;20205;-84
2022/06/05 09:02:00;;;;;;;7.13;6.43;;;;;;;23.35;50.46;100926.81;4987037;28;20642;-84
2022/06/05 09:04:48;;;;;;;6.65;5.88;;;;;;;23.32;50.60;100933.44;4988726;28;20335;-83
2022/06/05 09:07:17;;;;;;;6.30;5.68;;;;;;;23.35;50.54;100933.09;4981427;28;20210;-84
2022/06/05 09:09:48;;;;;;;7.13;5.85;;;;;;;23.37;50.70;100930.22;4981499;28;20210;-84
2022/06/05 09:12:23;;;;;;;6.68;5.97;;;;;;;23.38;50.96;100924.59;4986212;28;20672;-83
2022/06/05 09:14:57;;;;;;;6.85;6.15;;;;;;;23.40;51.17;100919.84;4988383;28;20875;-83
2022/06/05 09:17:26;;;;;;;6.32;5.72;;;;;;;23.40;50.69;100919.00;4984386;28;20199;-84
2022/06/05 09:19:54;;;;;;;7.03;6.32;;;;;;;23.39;50.15;100926.31;4984730;28;20884;-84
2022/06/05 09:22:32;;;;;;;7.55;6.68;;;;;;;23.38;50.18;100910.16;4983015;28;20230;-84
2022/06/05 09:25:07;;;;;;;6.55;5.82;;;;;;;23.37;50.26;100909.31;4982068;28;20702;-84
2022/06/05 09:27:49;;;;;;;6.85;6.25;;;;;;;23.37;50.79;100903.88;4984473;28;20210;-83
2022/06/05 09:30:21;;;;;;;7.90;5.95;;;;;;;23.39;51.04;100906.44;4978682;28;20221;-85
2022/06/05 09:33:08;;;;;;;6.63;6.03;;;;;;;23.42;50.56;100897.94;4990342;28;20220;-84
2022/06/05 09:35:39;;;;;;;6.65;5.97;;;;;;;23.45;51.06;100900.31;4984445;28;20227;-84
2022/06/05 09:38:14;;;;;;;7.03;6.32;;;;;;;23.49;51.12;100902.47;4987362;28;20198;-84
2022/06/05 09:40:54;;;;;;;7.63;6.40;;;;;;;23.51;50.83;100900.47;4985768;28;20205;-84
2022/06/05 09:44:01;;;;;;;7.43;6.70;;;;;;;23.57;50.66;100898.94;4984445;28;20212;-84
2022/06/05 09:46:40;;;;;;;6.35;5.78;;;;;;;23.64;50.80;100885.50;4986744;28;20219;-85
2022/06/05 09:49:13;;;;;;;6.70;6.10;;;;;;;23.77;51.12;100885.78;4990500;28;20245;-84
2022/06/05 09:51:42;;;;;;;7.05;6.35;;;;;;;23.89;50.83;100873.47;4990722;28;20195;-84
2022/06/05 09:54:20;;;;;;;7.22;6.10;;;;;;;24.04;50.97;100862.66;4982858;28;20310;-84
2022/06/05 09:59:54;;;;;;;7.63;6.22;;;;;;;24.18;49.72;100851.84;4991225;28;20587;-84
2022/06/05 10:02:22;;;;;;;6.95;6.35;;;;;;;24.26;50.49;100848.25;4990898;28;20222;-83
2022/06/05 10:04:50;;;;;;;7.20;6.60;;;;;;;24.36;50.16;100846.16;4984969;28;20207;-85
2022/06/05 10:07:24;;;;;;;7.07;6.45;;;;;;;24.38;49.04;100840.50;4981384;28;20200;-84
2022/06/05 10:09:50;;;;;;;7.28;6.65;;;;;;;24.44;48.90;100837.06;4984999;28;20219;-84
2022/06/05 10:12:24;;;;;;;6.88;6.22;;;;;;;24.48;48.39;100844.69;4983922;28;20206;-84
2022/06/05 10:14:58;;;;;;;7.07;6.47;;;;;;;24.48;47.67;100833.81;4985191;28;20237;-84
2022/06/05 10:17:49;;;;;;;6.85;6.35;;;;;;;24.49;48.43;100829.22;4992789;28;20697;-84
2022/06/05 10:20:42;;;;;;;6.90;6.30;;;;;;;24.52;48.74;100834.28;4993637;28;20696;-83
2022/06/05 10:23:17;;;;;;;7.45;6.63;;;;;;;24.58;48.32;100834.38;4994540;28;20219;-84
2022/06/05 10:25:52;;;;;;;7.72;7.13;;;;;;;24.64;48.28;100837.41;4989461;28;20222;-84
2022/06/05 10:28:21;;;;;;;7.57;6.85;;;;;;;24.69;48.48;100835.84;4994131;28;20199;-84
2022/06/05 10:31:00;;;;;;;7.57;6.72;;;;;;;24.75;48.74;100816.00;4992002;28;20215;-84
2022/06/05 10:33:43;;;;;;;7.07;6.38;;;;;;;24.87;49.43;100816.44;4982220;28;20203;-83
2022/06/05 10:36:15;;;;;;;7.00;6.32;;;;;;;24.96;48.97;100803.59;4988204;28;20683;-84
2022/06/05 10:38:52;;;;;;;8.18;6.05;;;;;;;24.99;47.67;100806.78;4986893;28;20211;-83
2022/06/05 10:41:24;;;;;;;7.22;6.10;;;;;;;24.98;47.80;100809.69;4983205;28;20203;-85
2022/06/05 10:44:11;;;;;;;7.53;6.03;;;;;;;25.02;48.36;100802.84;4986560;28;20227;-83
2022/06/05 10:46:47;;;;;;;6.50;5.90;;;;;;;25.05;47.91;100788.84;4990174;28;20252;-84
2022/06/05 10:49:18;;;;;;;7.97;5.78;;;;;;;25.03;47.51;100793.63;4990255;28;20215;-83
2022/06/05 10:51:55;;;;;;;6.05;5.55;;;;;;;25.00;46.85;100783.97;4994750;28;20663;-84
2022/06/05 10:54:33;;;;;;;6.43;5.45;;;;;;;24.91;46.27;100774.97;4984672;28;20195;-85
2022/06/05 10:57:06;;;;;;;6.22;5.72;;;;;;;24.86;46.71;100776.59;4982045;28;20219;-84
2022/06/05 10:59:44;;;;;;;6.78;5.70;;;;;;;24.82;47.16;100767.94;4984917;28;20557;-83
2022/06/05 11:02:42;;;;;;;6.15;5.55;;;;;;;24.79;47.02;100767.47;4984362;28;20207;-84
2022/06/05 11:05:26;;;;;;;6.68;6.07;;;;;;;24.71;46.78;100773.00;4986858;28;20355;-84
2022/06/05 11:07:59;;;;;;;6.13;5.53;;;;;;;24.62;46.42;100774.97;4990988;28;20278;-84
2022/06/05 11:13:43;;;;;;;6.05;5.47;;;;;;;24.54;47.38;100766.88;4987134;28;20206;-85
2022/06/05 11:16:20;;;;;;;6.40;5.40;;;;;;;24.53;46.87;100754.31;4988365;28;20246;-82
2022/06/05 11:18:54;;;;;;;6.00;5.40;;;;;;;24.51;46.65;100754.47;4987197;28;20206;-85
2022/06/05 11:21:24;;;;;;;6.00;5.35;;;;;;;24.51;46.77;100748.19;4985627;28;20203;-84
2022/06/05 11:23:55;;;;;;;6.45;5.88;;;;;;;24.56;47.05;100745.72;4983742;28;20225;-85
2022/06/05 11:26:36;;;;;;;6.95;5.45;;;;;;;24.60;46.85;100738.88;4981483;28;20220;-84
2022/06/05 11:29:21;;;;;;;6.65;6.05;;;;;;;24.64;47.38;100733.94;4989231;28;20290;-83
2022/06/05 11:32:04;;;;;;;5.63;5.15;;;;;;;24.70;47.11;100734.03;4989588;28;20208;-85
2022/06/05 11:34:44;;;;;;;6.00;5.55;;;;;;;24.81;46.95;100714.50;4987491;28;20195;-84
2022/06/05 11:37:25;;;;;;;6.07;5.47;;;;;;;24.91;47.01;100719.63;4991344;28;20213;-83
2022/06/05 11:40:01;;;;;;;6.00;5.53;;;;;;;25.03;46.55;100717.34;4994572;28;20666;-83
2022/06/05 11:42:32;;;;;;;7.07;5.70;;;;;;;25.11;46.06;100707.16;4989934;28;20203;-84
2022/06/05 11:45:09;;;;;;;5.78;5.28;;;;;;;25.18;45.72;100696.34;4990153;28;20219;-84
2022/06/05 11:47:43;;;;;;;5.72;5.22;;;;;;;25.21;45.60;100695.97;4990585;28;20203;-84
2022/06/05 11:50:24;;;;;;;6.88;5.35;;;;;;;25.26;45.49;100694.34;4993275;28;20211;-83
2022/06/05 11:52:55;;;;;;;4.93;4.63;;;;;;;25.29;45.51;100692.28;4989779;28;20206;-83
2022/06/05 11:55:33;;;;;;;5.85;5.00;;;;;;;25.30;45.30;100688.53;4988092;28;20226;-83
2022/06/05 11:58:05;;;;;;;5.00;4.60;;;;;;;25.33;44.87;100691.72;4988149;28;20226;-83
2022/06/05 12:00:37;;;;;;;5.43;4.93;;;;;;;25.38;45.27;100696.59;4989505;28;20211;-82